createdAt,value
2022-09-07T00:00:57.545Z,169.60
2022-09-07T00:03:25.839Z,144.90
2022-09-07T00:05:54.131Z,131.57
2022-09-07T00:08:23.827Z,109.30
2022-09-07T00:10:54.078Z,102.13
2022-09-07T00:13:22.400Z,95.07
2022-09-07T00:15:50.768Z,108.47
2022-09-07T00:18:20.655Z,107.73
2022-09-07T00:20:48.742Z,103.43
2022-09-07T00:23:16.825Z,106.67
2022-09-07T00:25:44.981Z,107.07
2022-09-07T00:28:13.079Z,102.87
2022-09-07T00:30:42.863Z,100.20
2022-09-07T00:33:11.477Z,98.70
2022-09-07T00:35:44.245Z,105.30
2022-09-07T00:38:12.505Z,109.90
2022-09-07T00:40:40.887Z,105.03
2022-09-07T00:43:34.237Z,115.80
2022-09-07T00:46:03.085Z,101.53
2022-09-07T00:48:34.973Z,297.63
2022-09-07T00:51:05.784Z,351.07
2022-09-07T00:53:35.946Z,299.17
2022-09-07T00:56:04.739Z,278.87
2022-09-07T00:58:35.760Z,277.53
2022-09-07T01:01:04.008Z,291.73
2022-09-07T01:03:35.417Z,271.97
2022-09-07T01:06:07.072Z,295.17
2022-09-07T01:08:35.957Z,300.77
2022-09-07T01:11:04.450Z,286.77
2022-09-07T01:13:33.983Z,295.57
2022-09-07T01:16:11.177Z,295.80
2022-09-07T01:18:44.203Z,286.80
2022-09-07T01:21:22.487Z,281.07
2022-09-07T01:24:19.236Z,290.63
2022-09-07T01:27:00.199Z,257.93
2022-09-07T01:29:37.130Z,279.60
2022-09-07T01:32:11.239Z,291.83
2022-09-07T01:34:39.632Z,311.07
2022-09-07T01:37:14.128Z,304.00
2022-09-07T01:39:47.733Z,316.93
2022-09-07T01:42:16.861Z,298.77
2022-09-07T01:44:47.900Z,298.13
2022-09-07T01:47:19.097Z,302.03
2022-09-07T01:49:49.700Z,286.63
2022-09-07T01:52:22.112Z,293.00
2022-09-07T01:54:55.141Z,279.00
2022-09-07T01:57:27.884Z,289.27
2022-09-07T02:00:01.267Z,275.00
2022-09-07T02:02:31.361Z,280.47
2022-09-07T02:05:01.632Z,261.33
2022-09-07T02:07:32.497Z,255.70
2022-09-07T02:10:02.204Z,253.27
2022-09-07T02:12:35.164Z,245.60
2022-09-07T02:15:07.736Z,250.13
2022-09-07T02:17:39.230Z,265.23
2022-09-07T02:20:10.755Z,246.33
2022-09-07T02:22:42.696Z,241.53
2022-09-07T02:25:11.767Z,223.23
2022-09-07T02:27:42.896Z,236.30
2022-09-07T02:30:13.756Z,234.87
2022-09-07T02:32:41.994Z,238.63
2022-09-07T02:35:10.603Z,224.23
2022-09-07T02:37:39.744Z,220.73
2022-09-07T02:40:09.570Z,226.83
2022-09-07T02:42:38.269Z,218.30
2022-09-07T02:45:08.541Z,233.00
2022-09-07T02:47:58.579Z,212.43
2022-09-07T02:50:45.886Z,210.10
2022-09-07T02:53:27.549Z,194.37
2022-09-07T02:56:02.504Z,176.20
2022-09-07T02:58:35.527Z,189.70
2022-09-07T03:01:09.126Z,191.17
2022-09-07T03:03:44.066Z,174.50
2022-09-07T03:06:18.219Z,191.13
2022-09-07T03:08:49.191Z,175.43
2022-09-07T03:11:18.200Z,176.93
2022-09-07T03:13:46.404Z,171.50
2022-09-07T03:16:15.488Z,167.73
2022-09-07T03:18:45.306Z,175.10
2022-09-07T03:21:13.589Z,175.93
2022-09-07T03:23:41.667Z,181.70
2022-09-07T03:26:21.564Z,174.07
2022-09-07T03:28:49.622Z,148.33
2022-09-07T03:31:17.743Z,148.20
2022-09-07T03:33:47.214Z,141.83
2022-09-07T03:36:15.355Z,152.83
2022-09-07T03:38:43.486Z,167.07
2022-09-07T03:41:13.061Z,162.53
2022-09-07T03:43:41.286Z,169.80
2022-09-07T03:46:10.508Z,162.27
2022-09-07T03:48:39.845Z,161.80
2022-09-07T03:51:10.887Z,156.87
2022-09-07T03:53:40.433Z,156.13
2022-09-07T03:56:09.896Z,148.97
2022-09-07T03:58:38.265Z,152.73
2022-09-07T04:01:07.716Z,153.77
2022-09-07T04:03:36.047Z,148.23
2022-09-07T04:06:05.205Z,145.90
2022-09-07T04:08:36.037Z,153.37
2022-09-07T04:11:05.700Z,139.27
2022-09-07T04:13:36.305Z,135.50
2022-09-07T04:16:10.973Z,140.33
2022-09-07T04:18:39.119Z,128.70
2022-09-07T04:21:07.396Z,133.27
2022-09-07T04:23:38.726Z,128.60
2022-09-07T04:26:07.166Z,141.53
2022-09-07T04:28:36.915Z,130.47
2022-09-07T04:31:05.097Z,129.10
2022-09-07T04:33:34.317Z,120.10
2022-09-07T04:36:02.920Z,137.50
2022-09-07T04:38:33.402Z,128.33
2022-09-07T04:41:07.676Z,134.10
2022-09-07T04:43:35.829Z,136.27
2022-09-07T04:46:08.134Z,136.23
2022-09-07T04:48:36.410Z,132.97
2022-09-07T04:51:06.397Z,129.93
2022-09-07T04:53:34.979Z,124.47
2022-09-07T04:56:04.856Z,112.77
2022-09-07T04:58:33.236Z,115.80
2022-09-07T05:01:03.051Z,116.20
2022-09-07T05:03:31.934Z,112.63
2022-09-07T05:06:01.908Z,115.57
2022-09-07T05:08:30.159Z,114.13
2022-09-07T05:10:58.592Z,104.57
2022-09-07T05:13:30.452Z,109.07
2022-09-07T05:15:58.568Z,107.73
2022-09-07T05:18:26.959Z,103.40
2022-09-07T05:20:55.101Z,101.30
2022-09-07T05:23:24.416Z,99.47
2022-09-07T05:25:52.492Z,105.43
2022-09-07T05:28:20.719Z,99.80
2022-09-07T05:36:27.621Z,94.23
2022-09-07T05:38:56.479Z,92.57
2022-09-07T05:41:25.988Z,98.00
2022-09-07T05:46:44.425Z,92.63
2022-09-07T05:49:12.552Z,93.97
2022-09-07T05:51:41.118Z,97.50
2022-09-07T05:54:09.228Z,97.87
2022-09-07T05:56:37.474Z,100.23
2022-09-07T05:59:05.519Z,102.80
2022-09-07T06:01:35.314Z,103.80
2022-09-07T06:04:05.235Z,107.97
2022-09-07T06:06:33.286Z,105.80
2022-09-07T06:09:01.362Z,110.97
2022-09-07T06:11:29.526Z,105.80
2022-09-07T06:13:57.594Z,98.63
2022-09-07T06:16:25.748Z,99.60
2022-09-07T06:18:53.851Z,99.57
2022-09-07T06:21:24.709Z,100.93
2022-09-07T06:23:53.308Z,100.57
2022-09-07T06:26:21.455Z,94.43
2022-09-07T06:28:52.853Z,101.93
2022-09-07T06:31:23.931Z,93.10
2022-09-07T06:33:52.905Z,97.87
2022-09-07T06:36:23.629Z,107.43
2022-09-07T06:38:52.716Z,110.47
2022-09-07T06:44:11.522Z,104.70
2022-09-07T06:49:28.224Z,102.53
2022-09-07T06:51:57.691Z,110.33
2022-09-07T06:57:13.986Z,115.57
2022-09-07T06:59:42.094Z,117.13
2022-09-07T07:02:11.692Z,115.80
2022-09-07T07:04:41.184Z,112.07
2022-09-07T07:07:13.458Z,125.23
2022-09-07T07:09:42.318Z,124.27
2022-09-07T07:12:10.847Z,132.43
2022-09-07T07:14:43.964Z,151.63
2022-09-07T07:17:15.171Z,164.47
2022-09-07T07:19:46.125Z,268.80
2022-09-07T07:22:43.027Z,355.87
2022-09-07T07:25:04.424Z,334.50
2022-09-07T07:27:32.563Z,376.73
2022-09-07T07:30:00.729Z,397.07
2022-09-07T07:32:28.948Z,389.47
2022-09-07T07:34:57.008Z,376.10
2022-09-07T07:37:28.353Z,386.33
2022-09-07T07:42:44.996Z,376.07
2022-09-07T07:48:02.019Z,371.10
2022-09-07T07:50:32.004Z,386.53
2022-09-07T07:55:51.621Z,410.50
2022-09-07T07:58:19.867Z,402.13
2022-09-07T08:00:54.764Z,420.07
2022-09-07T08:03:23.714Z,432.90
2022-09-07T08:05:52.148Z,407.40
2022-09-07T08:08:22.984Z,412.60
2022-09-07T08:10:51.411Z,418.80
2022-09-07T08:13:19.902Z,421.23
2022-09-07T08:15:48.121Z,417.33
2022-09-07T08:18:18.089Z,428.77
2022-09-07T08:20:46.212Z,408.30
2022-09-07T08:23:15.356Z,419.87
2022-09-07T08:25:52.019Z,440.37
2022-09-07T08:28:20.216Z,431.83
2022-09-07T08:30:48.431Z,409.87
2022-09-07T08:33:17.022Z,412.13
2022-09-07T08:35:55.291Z,405.00
2022-09-07T08:38:23.336Z,414.57
2022-09-07T08:40:52.729Z,443.63
2022-09-07T08:43:34.990Z,403.50
2022-09-07T08:46:07.525Z,390.90
2022-09-07T08:48:36.204Z,382.67
2022-09-07T08:51:10.865Z,422.47
2022-09-07T08:53:44.427Z,399.63
2022-09-07T08:56:19.899Z,389.20
2022-09-07T08:58:50.151Z,416.67
2022-09-07T09:01:35.733Z,384.27
2022-09-07T09:04:21.450Z,387.80
2022-09-07T09:07:06.027Z,378.23
2022-09-07T09:09:47.956Z,377.83
2022-09-07T09:12:24.753Z,398.27
2022-09-07T09:15:06.162Z,398.80
2022-09-07T09:17:36.849Z,376.70
2022-09-07T09:20:14.336Z,395.10
2022-09-07T09:22:42.419Z,389.80
2022-09-07T09:25:19.360Z,386.13
2022-09-07T09:27:49.020Z,378.77
2022-09-07T09:30:19.257Z,389.57
2022-09-07T09:32:49.342Z,382.23
2022-09-07T09:35:21.091Z,376.83
2022-09-07T09:37:49.045Z,399.83
2022-09-07T09:40:25.753Z,377.23
2022-09-07T09:43:03.427Z,402.43
2022-09-07T09:48:29.867Z,372.53
2022-09-07T09:53:57.155Z,381.33
2022-09-07T09:56:37.494Z,388.10
2022-09-07T10:05:31.070Z,388.40
2022-09-07T10:07:59.113Z,407.10
2022-09-07T10:10:28.336Z,408.00
2022-09-07T10:12:56.873Z,389.77
2022-09-07T10:15:40.000Z,395.63
2022-09-07T10:18:11.451Z,399.83
2022-09-07T10:20:39.569Z,388.13
2022-09-07T10:23:12.586Z,409.57
2022-09-07T10:25:44.289Z,410.90
2022-09-07T10:28:18.993Z,406.90
2022-09-07T10:30:56.736Z,401.53
2022-09-07T10:33:27.904Z,406.57
2022-09-07T10:36:01.282Z,382.57
2022-09-07T10:38:32.952Z,395.93
2022-09-07T10:41:07.342Z,407.17
2022-09-07T10:43:42.657Z,415.53
2022-09-07T10:49:20.514Z,418.20
2022-09-07T10:51:57.964Z,431.90
2022-09-07T10:54:34.838Z,445.70
2022-09-07T10:57:09.929Z,443.73
2022-09-07T11:03:24.947Z,431.70
2022-09-07T11:05:38.434Z,435.60
2022-09-07T11:08:16.363Z,414.20
2022-09-07T11:10:49.604Z,421.10
2022-09-07T11:13:22.181Z,406.27
2022-09-07T11:15:54.200Z,401.83
2022-09-07T11:18:28.062Z,406.47
2022-09-07T11:20:58.792Z,422.40
2022-09-07T11:23:29.639Z,412.23
2022-09-07T11:26:03.465Z,411.60
2022-09-07T11:28:38.543Z,389.83
2022-09-07T11:31:14.979Z,388.13
2022-09-07T11:36:46.180Z,393.60
2022-09-07T11:39:18.095Z,394.97
2022-09-07T11:41:53.849Z,465.83
2022-09-07T11:44:25.871Z,403.53
2022-09-07T11:46:55.780Z,405.27
2022-09-07T11:49:26.734Z,413.00
2022-09-07T11:51:56.639Z,429.80
2022-09-07T11:54:32.183Z,411.03
2022-09-07T11:57:18.247Z,419.07
2022-09-07T11:59:55.027Z,429.40
2022-09-07T12:02:58.372Z,419.90
2022-09-07T12:05:41.483Z,405.47
2022-09-07T12:08:19.470Z,400.37
2022-09-07T12:11:11.071Z,397.90
2022-09-07T12:13:54.987Z,415.33
2022-09-07T12:16:32.252Z,397.43
2022-09-07T12:19:13.208Z,410.63
2022-09-07T12:21:44.403Z,403.00
2022-09-07T12:24:34.759Z,404.17
2022-09-07T12:27:03.205Z,406.97
2022-09-07T12:29:32.140Z,405.87
2022-09-07T12:32:52.784Z,411.73
2022-09-07T12:34:54.628Z,412.17
2022-09-07T12:37:43.486Z,417.90
2022-09-07T12:40:47.719Z,413.67
2022-09-07T12:43:49.288Z,408.73
2022-09-07T12:46:41.773Z,416.07
2022-09-07T12:49:25.339Z,424.73
2022-09-07T12:52:02.060Z,421.50
2022-09-07T12:54:41.317Z,418.77
2022-09-07T12:57:29.392Z,432.67
2022-09-07T13:00:12.579Z,430.53
2022-09-07T13:02:53.696Z,418.40
2022-09-07T13:05:33.369Z,427.40
2022-09-07T13:08:20.198Z,427.50
2022-09-07T13:10:50.263Z,429.50
2022-09-07T13:14:02.583Z,420.30
2022-09-07T13:16:31.376Z,424.00
2022-09-07T13:19:02.043Z,423.83
2022-09-07T13:21:37.229Z,421.70
2022-09-07T13:24:50.190Z,418.40
2022-09-07T13:27:43.516Z,424.17
2022-09-07T13:30:32.482Z,420.07
2022-09-07T13:33:38.526Z,424.10
2022-09-07T13:36:06.884Z,414.07
2022-09-07T13:38:36.398Z,410.47
2022-09-07T13:41:07.654Z,408.47
2022-09-07T13:43:37.222Z,424.07
2022-09-07T13:46:09.299Z,412.13
2022-09-07T13:48:38.870Z,413.97
2022-09-07T13:51:10.358Z,407.47
2022-09-07T13:53:46.284Z,406.83
2022-09-07T13:56:20.889Z,402.37
2022-09-07T13:58:52.509Z,401.13
2022-09-07T14:01:22.971Z,400.23
2022-09-07T14:03:53.698Z,384.10
2022-09-07T14:06:31.208Z,384.53
2022-09-07T14:09:01.234Z,393.57
2022-09-07T14:11:30.964Z,376.57
2022-09-07T14:14:19.807Z,385.63
2022-09-07T14:16:50.308Z,380.97
2022-09-07T14:19:21.114Z,379.17
2022-09-07T14:21:56.613Z,384.30
2022-09-07T14:24:30.997Z,385.27
2022-09-07T14:26:59.380Z,399.00
2022-09-07T14:29:31.244Z,385.90
2022-09-07T14:32:00.576Z,394.63
2022-09-07T14:34:32.699Z,401.13
2022-09-07T14:37:04.284Z,405.43
2022-09-07T14:39:36.095Z,399.03
2022-09-07T14:42:04.544Z,399.77
2022-09-07T14:44:36.797Z,398.43
2022-09-07T14:47:08.707Z,399.50
2022-09-07T14:49:36.751Z,396.23
2022-09-07T14:52:05.296Z,397.27
2022-09-07T14:54:34.994Z,400.23
2022-09-07T14:57:06.399Z,406.10
2022-09-07T14:59:44.013Z,399.20
2022-09-07T15:02:35.090Z,404.50
2022-09-07T15:05:25.821Z,405.27
2022-09-07T15:07:55.776Z,393.07
2022-09-07T15:11:32.820Z,391.90
2022-09-07T15:13:35.196Z,385.10
2022-09-07T15:16:06.756Z,380.13
2022-09-07T15:18:55.730Z,386.13
2022-09-07T15:21:25.355Z,392.50
2022-09-07T15:23:54.113Z,402.83
2022-09-07T15:29:12.043Z,398.27
2022-09-07T15:31:45.755Z,412.27
2022-09-07T15:34:20.446Z,412.70
2022-09-07T15:36:50.688Z,413.53
2022-09-07T15:39:19.888Z,417.50
2022-09-07T15:41:48.175Z,411.73
2022-09-07T15:44:19.433Z,420.23
2022-09-07T15:49:44.709Z,426.90
2022-09-07T15:52:18.514Z,423.40
2022-09-07T15:54:46.682Z,422.23
2022-09-07T16:00:03.235Z,431.60
2022-09-07T16:05:31.339Z,427.57
2022-09-07T16:11:04.670Z,434.23
2022-09-07T16:13:33.872Z,445.00
2022-09-07T16:16:02.000Z,437.70
2022-09-07T16:18:31.816Z,437.80
2022-09-07T16:21:05.886Z,451.40
2022-09-07T16:23:34.353Z,453.93
2022-09-07T16:26:04.171Z,454.43
2022-09-07T16:28:32.673Z,455.27
2022-09-07T16:31:01.028Z,454.70
2022-09-07T16:33:36.039Z,449.97
2022-09-07T16:36:11.826Z,455.03
2022-09-07T16:38:55.575Z,450.70
2022-09-07T16:41:26.661Z,455.03
2022-09-07T16:43:54.909Z,463.73
2022-09-07T16:46:24.221Z,453.27
2022-09-07T16:48:52.889Z,451.37
2022-09-07T16:51:23.012Z,456.23
2022-09-07T16:53:52.496Z,456.50
2022-09-07T16:56:22.806Z,462.63
2022-09-07T16:58:51.989Z,458.57
2022-09-07T17:01:21.866Z,479.93
2022-09-07T17:03:50.502Z,476.57
2022-09-07T17:06:20.219Z,476.93
2022-09-07T17:08:49.567Z,483.23
2022-09-07T17:11:19.041Z,499.80
2022-09-07T17:13:47.698Z,500.90
2022-09-07T17:16:17.370Z,497.97
2022-09-07T17:21:35.728Z,492.70
2022-09-07T17:24:06.881Z,499.27
2022-09-07T17:26:35.325Z,496.83
2022-09-07T17:29:03.550Z,501.73
2022-09-07T17:34:21.730Z,519.07
2022-09-07T17:36:50.296Z,518.20
2022-09-07T17:39:20.014Z,522.00
2022-09-07T17:41:49.528Z,532.00
2022-09-07T17:44:17.494Z,519.30
2022-09-07T17:46:45.738Z,512.53
2022-09-07T17:49:16.465Z,516.77
2022-09-07T17:51:45.249Z,526.47
2022-09-07T17:54:15.731Z,525.83
2022-09-07T17:56:45.524Z,527.03
2022-09-07T18:02:02.026Z,522.60
2022-09-07T18:04:30.101Z,515.03
2022-09-07T18:06:58.094Z,522.00
2022-09-07T18:09:26.140Z,524.93
2022-09-07T18:11:55.470Z,521.23
2022-09-07T18:14:23.561Z,520.17
2022-09-07T18:16:51.860Z,530.87
2022-09-07T18:19:20.933Z,519.83
2022-09-07T18:21:49.445Z,522.40
2022-09-07T18:24:20.164Z,517.37
2022-09-07T18:26:50.881Z,516.50
2022-09-07T18:29:32.478Z,510.40
2022-09-07T18:32:02.571Z,518.57
2022-09-07T18:34:31.898Z,512.93
2022-09-07T18:37:00.433Z,515.40
2022-09-07T18:39:28.868Z,515.33
2022-09-07T18:41:57.311Z,524.23
2022-09-07T18:47:22.349Z,524.97
2022-09-07T18:49:52.060Z,519.53
2022-09-07T18:55:10.842Z,523.60
2022-09-07T18:57:39.374Z,525.20
2022-09-07T19:00:11.014Z,526.47
2022-09-07T19:02:39.108Z,526.57
2022-09-07T19:07:55.898Z,531.23
2022-09-07T19:10:24.411Z,539.60
2022-09-07T19:12:52.447Z,535.47
2022-09-07T19:15:22.064Z,532.47
2022-09-07T19:17:50.299Z,542.83
2022-09-07T19:20:18.617Z,528.70
2022-09-07T19:22:47.696Z,537.83
2022-09-07T19:25:16.096Z,540.67
2022-09-07T19:27:44.133Z,531.77
2022-09-07T19:30:13.585Z,534.83
2022-09-07T19:32:43.841Z,543.93
2022-09-07T19:35:12.110Z,540.30
2022-09-07T19:37:40.638Z,539.73
2022-09-07T19:40:12.717Z,549.67
2022-09-07T19:42:44.864Z,541.80
2022-09-07T19:45:14.100Z,538.37
2022-09-07T19:47:43.558Z,539.30
2022-09-07T19:50:11.575Z,538.97
2022-09-07T19:52:39.608Z,542.10
2022-09-07T19:55:08.736Z,537.80
2022-09-07T19:57:37.004Z,539.90
2022-09-07T20:00:06.193Z,545.87
2022-09-07T20:02:40.805Z,535.07
2022-09-07T20:05:11.827Z,541.00
2022-09-07T20:07:39.914Z,543.00
2022-09-07T20:10:08.876Z,536.27
2022-09-07T20:12:37.314Z,552.60
2022-09-07T20:15:07.538Z,545.93
2022-09-07T20:17:40.245Z,549.17
2022-09-07T20:20:11.062Z,546.13
2022-09-07T20:22:39.126Z,540.20
2022-09-07T20:25:12.497Z,533.27
2022-09-07T20:27:44.118Z,542.07
2022-09-07T20:30:13.274Z,535.80
2022-09-07T20:32:41.376Z,537.10
2022-09-07T20:35:11.261Z,541.93
2022-09-07T20:37:39.287Z,534.27
2022-09-07T20:40:08.465Z,543.30
2022-09-07T20:42:36.602Z,533.97
2022-09-07T20:45:05.237Z,528.30
2022-09-07T20:47:33.154Z,530.90
2022-09-07T20:50:01.106Z,526.47
2022-09-07T20:52:31.771Z,519.27
2022-09-07T20:55:02.333Z,517.57
2022-09-07T20:57:31.640Z,520.70
2022-09-07T20:59:59.995Z,514.73
2022-09-07T21:02:28.641Z,511.77
2022-09-07T21:04:57.621Z,498.70
2022-09-07T21:07:29.016Z,498.77
2022-09-07T21:09:58.564Z,496.03
2022-09-07T21:12:27.081Z,502.77
2022-09-07T21:14:55.157Z,495.30
2022-09-07T21:17:23.532Z,502.23
2022-09-07T21:19:55.549Z,494.47
2022-09-07T21:22:27.378Z,477.07
2022-09-07T21:24:55.506Z,490.37
2022-09-07T21:27:25.499Z,490.80
2022-09-07T21:29:53.642Z,470.53
2022-09-07T21:32:21.752Z,488.47
2022-09-07T21:34:49.764Z,473.67
2022-09-07T21:37:17.793Z,477.13
2022-09-07T21:39:45.845Z,468.40
2022-09-07T21:42:13.895Z,467.73
2022-09-07T21:44:43.458Z,459.07
2022-09-07T21:47:11.504Z,462.43
2022-09-07T21:49:39.729Z,471.60
2022-09-07T21:52:07.687Z,451.63
2022-09-07T21:54:35.765Z,450.00
2022-09-07T21:57:03.806Z,455.77
2022-09-07T21:59:31.885Z,440.43
2022-09-07T22:02:01.309Z,442.63
2022-09-07T22:04:29.529Z,443.80
2022-09-07T22:06:57.833Z,444.90
2022-09-07T22:09:25.771Z,430.90
2022-09-07T22:11:54.218Z,417.40
2022-09-07T22:14:22.427Z,424.97
2022-09-07T22:16:50.371Z,428.70
2022-09-07T22:19:19.869Z,425.83
2022-09-07T22:21:47.876Z,415.73
2022-09-07T22:24:16.034Z,416.80
2022-09-07T22:26:43.965Z,403.37
2022-09-07T22:29:13.572Z,403.07
2022-09-07T22:31:41.848Z,396.57
2022-09-07T22:34:10.311Z,395.30
2022-09-07T22:36:41.015Z,401.97
2022-09-07T22:39:11.923Z,405.07
2022-09-07T22:41:41.739Z,397.30
2022-09-07T22:44:12.190Z,398.93
2022-09-07T22:46:42.178Z,402.73
2022-09-07T22:49:12.235Z,402.77
2022-09-07T22:51:41.557Z,382.40
2022-09-07T22:54:09.680Z,400.00
2022-09-07T22:56:38.315Z,393.17
2022-09-07T22:59:08.433Z,389.73
2022-09-07T23:01:37.216Z,399.77
2022-09-07T23:04:05.539Z,404.03
2022-09-07T23:06:35.359Z,398.70
2022-09-07T23:09:06.703Z,404.53
2022-09-07T23:11:34.695Z,399.00
2022-09-07T23:14:04.630Z,389.33
2022-09-07T23:16:32.800Z,394.13
2022-09-07T23:19:01.439Z,387.57
2022-09-07T23:21:30.373Z,402.93
2022-09-07T23:23:59.739Z,396.70
2022-09-07T23:26:31.031Z,402.17
2022-09-07T23:29:00.861Z,394.80
2022-09-07T23:31:30.382Z,399.63
2022-09-07T23:33:58.883Z,389.67
2022-09-07T23:36:27.227Z,395.30
2022-09-07T23:38:56.399Z,403.17
2022-09-07T23:41:25.322Z,391.83
2022-09-07T23:43:55.167Z,401.07
2022-09-07T23:46:23.703Z,401.47
2022-09-07T23:48:51.985Z,403.47
2022-09-07T23:51:23.792Z,398.87
2022-09-07T23:53:52.261Z,405.10
2022-09-07T23:56:20.511Z,393.83
2022-09-07T23:58:48.771Z,405.30
